sensor_id;sensor_type;location;lat;lon;timestamp;pressure;altitude;pressure_sealevel;temperature;humidity
20889;BME280;10604;51.976;7.594;2023-01-30T00:01:23;100958.81;;;4.58;89.75
20889;BME280;10604;51.976;7.594;2023-01-30T00:03:49;100966.66;;;4.61;89.68
20889;BME280;10604;51.976;7.594;2023-01-30T00:06:15;100975.38;;;4.60;89.69
20889;BME280;10604;51.976;7.594;2023-01-30T00:08:40;100971.88;;;4.64;89.98
20889;BME280;10604;51.976;7.594;2023-01-30T00:11:08;100960.56;;;4.60;90.03
20889;BME280;10604;51.976;7.594;2023-01-30T00:13:34;100977.94;;;4.72;90.21
20889;BME280;10604;51.976;7.594;2023-01-30T00:15:59;100958.81;;;4.62;90.35
20889;BME280;10604;51.976;7.594;2023-01-30T00:18:25;100949.22;;;4.63;90.31
20889;BME280;10604;51.976;7.594;2023-01-30T00:20:57;100946.63;;;4.64;90.28
20889;BME280;10604;51.976;7.594;2023-01-30T00:23:24;100942.28;;;4.68;90.85
20889;BME280;10604;51.976;7.594;2023-01-30T00:25:50;100936.13;;;4.78;90.36
20889;BME280;10604;51.976;7.594;2023-01-30T00:28:15;100933.50;;;4.78;90.60
20889;BME280;10604;51.976;7.594;2023-01-30T00:30:40;100924.84;;;4.67;90.60
20889;BME280;10604;51.976;7.594;2023-01-30T00:33:06;100923.94;;;4.82;90.65
20889;BME280;10604;51.976;7.594;2023-01-30T00:35:31;100910.00;;;4.81;90.87
20889;BME280;10604;51.976;7.594;2023-01-30T00:37:57;100912.56;;;4.93;90.60
20889;BME280;10604;51.976;7.594;2023-01-30T00:40:24;100900.41;;;4.86;90.98
20889;BME280;10604;51.976;7.594;2023-01-30T00:42:51;100898.63;;;4.94;90.92
20889;BME280;10604;51.976;7.594;2023-01-30T00:45:37;100898.63;;;4.91;90.45
20889;BME280;10604;51.976;7.594;2023-01-30T00:48:23;100888.19;;;4.85;90.60
20889;BME280;10604;51.976;7.594;2023-01-30T00:50:48;100884.72;;;4.83;91.28
20889;BME280;10604;51.976;7.594;2023-01-30T00:53:14;100881.19;;;4.90;92.15
20889;BME280;10604;51.976;7.594;2023-01-30T00:55:40;100862.91;;;4.90;92.08
20889;BME280;10604;51.976;7.594;2023-01-30T00:58:07;100853.31;;;4.95;92.05
20889;BME280;10604;51.976;7.594;2023-01-30T01:00:33;100851.50;;;5.09;92.43
20889;BME280;10604;51.976;7.594;2023-01-30T01:02:58;100849.75;;;5.05;92.01
20889;BME280;10604;51.976;7.594;2023-01-30T01:05:24;100855.00;;;5.05;92.29
20889;BME280;10604;51.976;7.594;2023-01-30T01:07:49;100857.63;;;5.04;92.67
20889;BME280;10604;51.976;7.594;2023-01-30T01:10:15;100834.09;;;5.05;92.98
20889;BME280;10604;51.976;7.594;2023-01-30T01:12:41;100828.03;;;5.00;93.74
20889;BME280;10604;51.976;7.594;2023-01-30T01:15:08;100820.19;;;5.00;93.54
20889;BME280;10604;51.976;7.594;2023-01-30T01:17:33;100822.75;;;5.05;93.60
20889;BME280;10604;51.976;7.594;2023-01-30T01:19:59;100820.16;;;5.06;94.14
20889;BME280;10604;51.976;7.594;2023-01-30T01:22:24;100804.50;;;5.00;94.98
20889;BME280;10604;51.976;7.594;2023-01-30T01:24:49;100787.97;;;5.00;94.08
20889;BME280;10604;51.976;7.594;2023-01-30T01:27:15;100787.03;;;5.05;94.50
20889;BME280;10604;51.976;7.594;2023-01-30T01:29:40;100774.00;;;5.04;94.50
20889;BME280;10604;51.976;7.594;2023-01-30T01:32:05;100774.81;;;5.10;94.54
20889;BME280;10604;51.976;7.594;2023-01-30T01:34:31;100773.13;;;5.03;95.24
20889;BME280;10604;51.976;7.594;2023-01-30T01:36:56;100773.09;;;5.09;96.13
20889;BME280;10604;51.976;7.594;2023-01-30T01:39:21;100756.53;;;5.10;96.39
20889;BME280;10604;51.976;7.594;2023-01-30T01:41:47;100775.66;;;5.16;96.39
20889;BME280;10604;51.976;7.594;2023-01-30T01:44:13;100774.78;;;5.17;96.75
20889;BME280;10604;51.976;7.594;2023-01-30T01:46:57;100780.88;;;5.14;97.16
20889;BME280;10604;51.976;7.594;2023-01-30T01:49:30;100773.91;;;5.13;97.12
20889;BME280;10604;51.976;7.594;2023-01-30T01:52:02;100778.31;;;5.09;97.97
20889;BME280;10604;51.976;7.594;2023-01-30T01:57:03;100771.34;;;5.10;97.88
20889;BME280;10604;51.976;7.594;2023-01-30T01:59:34;100751.25;;;5.18;98.14
20889;BME280;10604;51.976;7.594;2023-01-30T02:02:05;100746.03;;;5.13;98.52
20889;BME280;10604;51.976;7.594;2023-01-30T02:04:32;100729.47;;;5.15;98.34
20889;BME280;10604;51.976;7.594;2023-01-30T02:07:17;100757.38;;;5.12;99.09
20889;BME280;10604;51.976;7.594;2023-01-30T02:09:45;100753.81;;;5.20;98.85
20889;BME280;10604;51.976;7.594;2023-01-30T02:12:12;100748.59;;;5.23;98.78
20889;BME280;10604;51.976;7.594;2023-01-30T02:14:39;100742.41;;;5.33;99.11
20889;BME280;10604;51.976;7.594;2023-01-30T02:17:04;100737.13;;;5.39;98.97
20889;BME280;10604;51.976;7.594;2023-01-30T02:33:49;100710.09;;;5.37;99.51
20889;BME280;10604;51.976;7.594;2023-01-30T02:36:27;100687.53;;;5.30;99.75
20889;BME280;10604;51.976;7.594;2023-01-30T02:42:29;100686.53;;;5.41;100.00
20889;BME280;10604;51.976;7.594;2023-01-30T02:45:29;100664.78;;;5.38;100.00
20889;BME280;10604;51.976;7.594;2023-01-30T02:48:03;100668.19;;;5.46;100.00
20889;BME280;10604;51.976;7.594;2023-01-30T02:50:35;100673.41;;;5.46;99.89
20889;BME280;10604;51.976;7.594;2023-01-30T02:53:04;100662.88;;;5.52;100.00
20889;BME280;10604;51.976;7.594;2023-01-30T02:55:30;100666.31;;;5.57;100.00
20889;BME280;10604;51.976;7.594;2023-01-30T02:57:56;100649.72;;;5.61;100.00
20889;BME280;10604;51.976;7.594;2023-01-30T03:03:20;100650.47;;;5.69;100.00
20889;BME280;10604;51.976;7.594;2023-01-30T03:06:07;100653.91;;;5.74;100.00
20889;BME280;10604;51.976;7.594;2023-01-30T03:11:06;100660.75;;;5.87;100.00
20889;BME280;10604;51.976;7.594;2023-01-30T03:18:27;100653.69;;;5.96;100.00
20889;BME280;10604;51.976;7.594;2023-01-30T03:20:53;100646.59;;;6.04;100.00
20889;BME280;10604;51.976;7.594;2023-01-30T03:23:19;100629.19;;;6.00;100.00
20889;BME280;10604;51.976;7.594;2023-01-30T03:25:45;100643.06;;;6.05;100.00
20889;BME280;10604;51.976;7.594;2023-01-30T03:28:17;100628.13;;;6.13;100.00
20889;BME280;10604;51.976;7.594;2023-01-30T03:30:44;100632.41;;;6.20;100.00
20889;BME280;10604;51.976;7.594;2023-01-30T03:33:09;100606.31;;;6.14;100.00
20889;BME280;10604;51.976;7.594;2023-01-30T03:35:35;100602.78;;;6.18;100.00
20889;BME280;10604;51.976;7.594;2023-01-30T03:38:01;100613.19;;;6.19;100.00
20889;BME280;10604;51.976;7.594;2023-01-30T03:40:26;100618.41;;;6.21;100.00
20889;BME280;10604;51.976;7.594;2023-01-30T03:42:51;100597.38;;;6.27;100.00
20889;BME280;10604;51.976;7.594;2023-01-30T03:45:17;100619.25;;;6.24;100.00
20889;BME280;10604;51.976;7.594;2023-01-30T03:47:42;100604.41;;;6.25;100.00
20889;BME280;10604;51.976;7.594;2023-01-30T03:50:08;100609.56;;;6.31;100.00
20889;BME280;10604;51.976;7.594;2023-01-30T03:52:35;100607.91;;;6.24;100.00
20889;BME280;10604;51.976;7.594;2023-01-30T03:55:01;100595.59;;;6.32;100.00
20889;BME280;10604;51.976;7.594;2023-01-30T03:57:26;100593.84;;;6.31;100.00
20889;BME280;10604;51.976;7.594;2023-01-30T03:59:51;100588.72;;;6.23;100.00
20889;BME280;10604;51.976;7.594;2023-01-30T04:02:17;100578.94;;;6.33;100.00
20889;BME280;10604;51.976;7.594;2023-01-30T04:04:47;100574.78;;;6.20;100.00
20889;BME280;10604;51.976;7.594;2023-01-30T04:07:13;100583.41;;;6.28;100.00
20889;BME280;10604;51.976;7.594;2023-01-30T04:09:38;100592.97;;;6.32;100.00
20889;BME280;10604;51.976;7.594;2023-01-30T04:12:04;100575.50;;;6.31;100.00
20889;BME280;10604;51.976;7.594;2023-01-30T04:14:29;100571.09;;;6.33;100.00
20889;BME280;10604;51.976;7.594;2023-01-30T04:16:55;100570.97;;;6.42;100.00
20889;BME280;10604;51.976;7.594;2023-01-30T04:19:20;100577.03;;;6.46;100.00
20889;BME280;10604;51.976;7.594;2023-01-30T04:21:45;100576.25;;;6.39;100.00
20889;BME280;10604;51.976;7.594;2023-01-30T04:24:11;100586.69;;;6.42;100.00
20889;BME280;10604;51.976;7.594;2023-01-30T04:26:36;100565.81;;;6.36;100.00
20889;BME280;10604;51.976;7.594;2023-01-30T04:29:01;100577.19;;;6.34;100.00
20889;BME280;10604;51.976;7.594;2023-01-30T04:31:27;100580.66;;;6.37;100.00
20889;BME280;10604;51.976;7.594;2023-01-30T04:33:52;100571.91;;;6.38;100.00
20889;BME280;10604;51.976;7.594;2023-01-30T04:36:17;100572.81;;;6.34;100.00
20889;BME280;10604;51.976;7.594;2023-01-30T04:38:43;100584.91;;;6.44;100.00
20889;BME280;10604;51.976;7.594;2023-01-30T04:41:08;100573.66;;;6.39;100.00
20889;BME280;10604;51.976;7.594;2023-01-30T04:43:34;100551.69;;;6.46;100.00
20889;BME280;10604;51.976;7.594;2023-01-30T04:46:00;100569.94;;;6.51;100.00
20889;BME280;10604;51.976;7.594;2023-01-30T04:48:25;100562.19;;;6.45;100.00
20889;BME280;10604;51.976;7.594;2023-01-30T04:50:52;100555.22;;;6.45;100.00
20889;BME280;10604;51.976;7.594;2023-01-30T04:53:18;100556.84;;;6.52;100.00
20889;BME280;10604;51.976;7.594;2023-01-30T04:55:44;100556.06;;;6.46;100.00
20889;BME280;10604;51.976;7.594;2023-01-30T04:58:10;100555.13;;;6.48;100.00
20889;BME280;10604;51.976;7.594;2023-01-30T05:00:35;100554.16;;;6.54;100.00
20889;BME280;10604;51.976;7.594;2023-01-30T05:03:01;100556.88;;;6.49;100.00
20889;BME280;10604;51.976;7.594;2023-01-30T05:05:27;100559.34;;;6.60;100.00
20889;BME280;10604;51.976;7.594;2023-01-30T05:07:53;100549.75;;;6.57;100.00
20889;BME280;10604;51.976;7.594;2023-01-30T05:10:18;100535.78;;;6.58;100.00
20889;BME280;10604;51.976;7.594;2023-01-30T05:12:44;100535.88;;;6.52;100.00
20889;BME280;10604;51.976;7.594;2023-01-30T05:15:11;100537.50;;;6.59;100.00
20889;BME280;10604;51.976;7.594;2023-01-30T05:17:37;100525.31;;;6.55;100.00
20889;BME280;10604;51.976;7.594;2023-01-30T05:20:03;100525.41;;;6.52;100.00
20889;BME280;10604;51.976;7.594;2023-01-30T05:22:29;100531.44;;;6.54;100.00
20889;BME280;10604;51.976;7.594;2023-01-30T05:24:54;100511.44;;;6.50;100.00
20889;BME280;10604;51.976;7.594;2023-01-30T05:27:20;100525.22;;;6.61;100.00
20889;BME280;10604;51.976;7.594;2023-01-30T05:29:45;100539.25;;;6.60;100.00
20889;BME280;10604;51.976;7.594;2023-01-30T05:32:14;100546.09;;;6.67;100.00
20889;BME280;10604;51.976;7.594;2023-01-30T05:34:40;100554.78;;;6.69;100.00
20889;BME280;10604;51.976;7.594;2023-01-30T05:37:05;100551.16;;;6.77;100.00
20889;BME280;10604;51.976;7.594;2023-01-30T05:39:31;100546.75;;;6.79;100.00
20889;BME280;10604;51.976;7.594;2023-01-30T05:41:56;100541.38;;;6.88;100.00
20889;BME280;10604;51.976;7.594;2023-01-30T05:44:22;100547.50;;;6.87;100.00
20889;BME280;10604;51.976;7.594;2023-01-30T05:46:47;100539.75;;;6.81;100.00
20889;BME280;10604;51.976;7.594;2023-01-30T05:49:13;100533.63;;;6.82;100.00
20889;BME280;10604;51.976;7.594;2023-01-30T05:51:38;100534.22;;;6.96;100.00
20889;BME280;10604;51.976;7.594;2023-01-30T05:54:03;100526.53;;;6.87;100.00
20889;BME280;10604;51.976;7.594;2023-01-30T05:56:29;100536.88;;;6.93;100.00
20889;BME280;10604;51.976;7.594;2023-01-30T05:58:57;100522.16;;;6.87;100.00
20889;BME280;10604;51.976;7.594;2023-01-30T06:01:23;100535.91;;;6.98;100.00
20889;BME280;10604;51.976;7.594;2023-01-30T06:03:48;100531.53;;;6.99;100.00
20889;BME280;10604;51.976;7.594;2023-01-30T06:06:14;100529.88;;;6.95;100.00
20889;BME280;10604;51.976;7.594;2023-01-30T06:08:40;100524.41;;;7.05;100.00
20889;BME280;10604;51.976;7.594;2023-01-30T06:11:11;100533.16;;;7.06;100.00
20889;BME280;10604;51.976;7.594;2023-01-30T06:13:37;100540.06;;;7.10;100.00
20889;BME280;10604;51.976;7.594;2023-01-30T06:16:07;100532.16;;;7.12;100.00
20889;BME280;10604;51.976;7.594;2023-01-30T06:18:33;100525.19;;;7.11;100.00
20889;BME280;10604;51.976;7.594;2023-01-30T06:20:58;100532.97;;;7.15;100.00
20889;BME280;10604;51.976;7.594;2023-01-30T06:23:24;100531.25;;;7.14;100.00
20889;BME280;10604;51.976;7.594;2023-01-30T06:25:50;100538.06;;;7.24;100.00
20889;BME280;10604;51.976;7.594;2023-01-30T06:28:16;100536.38;;;7.20;100.00
20889;BME280;10604;51.976;7.594;2023-01-30T06:30:42;100531.13;;;7.20;100.00
20889;BME280;10604;51.976;7.594;2023-01-30T06:33:08;100555.47;;;7.25;100.00
20889;BME280;10604;51.976;7.594;2023-01-30T06:35:33;100603.66;;;7.21;100.00
20889;BME280;10604;51.976;7.594;2023-01-30T06:37:59;100601.38;;;7.03;100.00
20889;BME280;10604;51.976;7.594;2023-01-30T06:40:24;100596.69;;;6.71;99.83
20889;BME280;10604;51.976;7.594;2023-01-30T06:42:50;100601.06;;;6.71;98.87
20889;BME280;10604;51.976;7.594;2023-01-30T06:45:16;100593.44;;;6.55;98.98
20889;BME280;10604;51.976;7.594;2023-01-30T06:47:51;100610.91;;;6.56;99.60
20889;BME280;10604;51.976;7.594;2023-01-30T06:50:19;100604.00;;;6.52;99.74
20889;BME280;10604;51.976;7.594;2023-01-30T06:52:47;100600.50;;;6.53;99.72
20889;BME280;10604;51.976;7.594;2023-01-30T06:55:15;100614.50;;;6.49;98.91
20889;BME280;10604;51.976;7.594;2023-01-30T06:57:41;100595.31;;;6.47;98.67
20889;BME280;10604;51.976;7.594;2023-01-30T07:00:10;100614.78;;;6.31;98.60
20889;BME280;10604;51.976;7.594;2023-01-30T07:02:36;100591.25;;;6.29;97.99
20889;BME280;10604;51.976;7.594;2023-01-30T07:05:03;100597.53;;;6.18;97.52
20889;BME280;10604;51.976;7.594;2023-01-30T07:07:29;100598.31;;;6.24;97.39
20889;BME280;10604;51.976;7.594;2023-01-30T07:09:55;100590.41;;;6.26;97.57
20889;BME280;10604;51.976;7.594;2023-01-30T07:12:21;100599.94;;;6.32;97.03
20889;BME280;10604;51.976;7.594;2023-01-30T07:14:47;100597.34;;;6.30;96.82
20889;BME280;10604;51.976;7.594;2023-01-30T07:17:12;100604.13;;;6.43;96.78
20889;BME280;10604;51.976;7.594;2023-01-30T07:19:38;100610.22;;;6.45;96.70
20889;BME280;10604;51.976;7.594;2023-01-30T07:22:04;100609.34;;;6.46;96.45
20889;BME280;10604;51.976;7.594;2023-01-30T07:24:29;100610.16;;;6.47;96.66
20889;BME280;10604;51.976;7.594;2023-01-30T07:26:55;100608.41;;;6.47;96.10
20889;BME280;10604;51.976;7.594;2023-01-30T07:29:21;100612.66;;;6.54;96.71
20889;BME280;10604;51.976;7.594;2023-01-30T07:31:46;100605.75;;;6.50;96.16
20889;BME280;10604;51.976;7.594;2023-01-30T07:34:11;100619.75;;;6.49;96.52
20889;BME280;10604;51.976;7.594;2023-01-30T07:36:37;100630.13;;;6.55;96.39
20889;BME280;10604;51.976;7.594;2023-01-30T07:39:04;100623.91;;;6.62;96.41
20889;BME280;10604;51.976;7.594;2023-01-30T07:41:29;100635.22;;;6.64;96.69
20889;BME280;10604;51.976;7.594;2023-01-30T07:43:55;100635.22;;;6.64;96.94
20889;BME280;10604;51.976;7.594;2023-01-30T07:46:20;100633.34;;;6.73;96.59
20889;BME280;10604;51.976;7.594;2023-01-30T07:48:45;100640.50;;;6.63;97.58
20889;BME280;10604;51.976;7.594;2023-01-30T07:51:11;100639.63;;;6.62;97.63
20889;BME280;10604;51.976;7.594;2023-01-30T07:53:36;100645.69;;;6.66;97.78
20889;BME280;10604;51.976;7.594;2023-01-30T07:56:09;100636.72;;;6.81;97.29
20889;BME280;10604;51.976;7.594;2023-01-30T07:58:35;100641.97;;;6.81;96.30
20889;BME280;10604;51.976;7.594;2023-01-30T08:01:00;100652.28;;;6.90;95.48
20889;BME280;10604;51.976;7.594;2023-01-30T08:03:26;100650.34;;;7.01;94.97
20889;BME280;10604;51.976;7.594;2023-01-30T08:05:51;100654.09;;;6.88;93.71
20889;BME280;10604;51.976;7.594;2023-01-30T08:08:18;100659.00;;;7.06;92.69
20889;BME280;10604;51.976;7.594;2023-01-30T08:10:44;100653.84;;;7.03;91.41
20889;BME280;10604;51.976;7.594;2023-01-30T08:13:12;100651.13;;;7.06;91.43
20889;BME280;10604;51.976;7.594;2023-01-30T08:15:38;100662.63;;;6.99;91.51
20889;BME280;10604;51.976;7.594;2023-01-30T08:18:03;100641.50;;;7.08;89.19
20889;BME280;10604;51.976;7.594;2023-01-30T08:20:28;100649.28;;;7.11;90.28
20889;BME280;10604;51.976;7.594;2023-01-30T08:22:54;100650.34;;;7.01;89.64
20889;BME280;10604;51.976;7.594;2023-01-30T08:25:20;100646.78;;;7.05;88.21
20889;BME280;10604;51.976;7.594;2023-01-30T08:27:45;100662.31;;;7.17;87.98
20889;BME280;10604;51.976;7.594;2023-01-30T08:30:11;100666.75;;;7.14;88.18
20889;BME280;10604;51.976;7.594;2023-01-30T08:32:37;100658.84;;;7.17;87.47
20889;BME280;10604;51.976;7.594;2023-01-30T08:35:03;100672.81;;;7.17;88.15
20889;BME280;10604;51.976;7.594;2023-01-30T08:37:28;100677.94;;;7.23;88.17
20889;BME280;10604;51.976;7.594;2023-01-30T08:39:53;100680.44;;;7.31;88.28
20889;BME280;10604;51.976;7.594;2023-01-30T08:42:19;100676.09;;;7.28;87.88
20889;BME280;10604;51.976;7.594;2023-01-30T08:44:44;100672.63;;;7.26;88.13
20889;BME280;10604;51.976;7.594;2023-01-30T08:47:10;100671.75;;;7.27;86.56
20889;BME280;10604;51.976;7.594;2023-01-30T08:49:35;100679.63;;;7.27;87.04
20889;BME280;10604;51.976;7.594;2023-01-30T08:52:01;100680.38;;;7.34;86.91
20889;BME280;10604;51.976;7.594;2023-01-30T08:54:26;100673.09;;;7.48;87.38
20889;BME280;10604;51.976;7.594;2023-01-30T08:56:51;100672.44;;;7.38;86.63
20889;BME280;10604;51.976;7.594;2023-01-30T08:59:17;100666.31;;;7.38;86.95
20889;BME280;10604;51.976;7.594;2023-01-30T09:01:42;100666.38;;;7.33;87.35
20889;BME280;10604;51.976;7.594;2023-01-30T09:04:08;100671.44;;;7.44;86.91
20889;BME280;10604;51.976;7.594;2023-01-30T09:06:33;100678.50;;;7.40;86.28
20889;BME280;10604;51.976;7.594;2023-01-30T09:08:59;100679.38;;;7.39;85.98
20889;BME280;10604;51.976;7.594;2023-01-30T09:11:25;100670.50;;;7.46;85.78
20889;BME280;10604;51.976;7.594;2023-01-30T09:13:50;100665.25;;;7.46;84.85
20889;BME280;10604;51.976;7.594;2023-01-30T09:16:15;100663.38;;;7.55;83.20
20889;BME280;10604;51.976;7.594;2023-01-30T09:18:42;100679.03;;;7.59;83.99
20889;BME280;10604;51.976;7.594;2023-01-30T09:21:09;100660.00;;;7.46;84.00
20889;BME280;10604;51.976;7.594;2023-01-30T09:23:35;100664.22;;;7.55;83.04
20889;BME280;10604;51.976;7.594;2023-01-30T09:26:01;100655.50;;;7.53;82.77
20889;BME280;10604;51.976;7.594;2023-01-30T09:28:27;100653.47;;;7.69;83.14
20889;BME280;10604;51.976;7.594;2023-01-30T09:30:55;100664.84;;;7.68;81.47
20889;BME280;10604;51.976;7.594;2023-01-30T09:33:21;100662.03;;;7.78;81.51
20889;BME280;10604;51.976;7.594;2023-01-30T09:35:47;100672.81;;;7.65;81.89
20889;BME280;10604;51.976;7.594;2023-01-30T09:38:13;100670.09;;;7.68;81.91
20889;BME280;10604;51.976;7.594;2023-01-30T09:46:03;100683.53;;;7.97;81.09
20889;BME280;10604;51.976;7.594;2023-01-30T09:48:41;100692.63;;;7.81;80.75
20889;BME280;10604;51.976;7.594;2023-01-30T09:51:28;100674.16;;;7.84;81.47
20889;BME280;10604;51.976;7.594;2023-01-30T09:56:20;100686.69;;;8.14;80.02
20889;BME280;10604;51.976;7.594;2023-01-30T09:58:57;100686.09;;;8.00;78.83
20889;BME280;10604;51.976;7.594;2023-01-30T10:12:36;100700.28;;;8.35;78.41
20889;BME280;10604;51.976;7.594;2023-01-30T10:18:26;100694.31;;;8.25;78.72
20889;BME280;10604;51.976;7.594;2023-01-30T10:24:11;100708.25;;;7.87;79.69
20889;BME280;10604;51.976;7.594;2023-01-30T10:26:14;100698.75;;;7.80;81.59
20889;BME280;10604;51.976;7.594;2023-01-30T10:28:57;100703.41;;;7.66;83.00
20889;BME280;10604;51.976;7.594;2023-01-30T10:31:28;100694.66;;;7.67;83.58
20889;BME280;10604;51.976;7.594;2023-01-30T10:34:08;100692.94;;;7.63;83.04
20889;BME280;10604;51.976;7.594;2023-01-30T10:36:55;100672.78;;;7.66;81.66
20889;BME280;10604;51.976;7.594;2023-01-30T10:39:36;100683.34;;;8.06;82.49
20889;BME280;10604;51.976;7.594;2023-01-30T10:42:12;100689.47;;;8.05;80.56
20889;BME280;10604;51.976;7.594;2023-01-30T10:44:39;100686.31;;;8.33;79.49
20889;BME280;10604;51.976;7.594;2023-01-30T10:48:25;100697.44;;;8.45;78.97
20889;BME280;10604;51.976;7.594;2023-01-30T10:50:20;100685.97;;;8.48;77.47
20889;BME280;10604;51.976;7.594;2023-01-30T10:55:47;100675.25;;;8.17;77.93
20889;BME280;10604;51.976;7.594;2023-01-30T11:01:31;100706.13;;;8.04;78.24
20889;BME280;10604;51.976;7.594;2023-01-30T11:04:02;100709.91;;;7.91;79.74
20889;BME280;10604;51.976;7.594;2023-01-30T11:06:29;100700.41;;;7.84;79.29
20889;BME280;10604;51.976;7.594;2023-01-30T11:08:56;100706.63;;;7.80;79.42
20889;BME280;10604;51.976;7.594;2023-01-30T11:11:42;100711.69;;;7.89;78.63
20889;BME280;10604;51.976;7.594;2023-01-30T11:14:11;100715.88;;;7.99;78.81
20889;BME280;10604;51.976;7.594;2023-01-30T11:16:56;100708.59;;;8.12;78.12
20889;BME280;10604;51.976;7.594;2023-01-30T11:19:29;100709.31;;;8.20;77.48
20889;BME280;10604;51.976;7.594;2023-01-30T11:21:59;100706.16;;;8.46;76.73
20889;BME280;10604;51.976;7.594;2023-01-30T11:24:43;100720.06;;;8.52;76.44
20889;BME280;10604;51.976;7.594;2023-01-30T11:27:26;100717.66;;;8.42;75.16
20889;BME280;10604;51.976;7.594;2023-01-30T11:30:12;100715.00;;;8.42;77.02
20889;BME280;10604;51.976;7.594;2023-01-30T11:32:41;100702.25;;;8.23;76.07
20889;BME280;10604;51.976;7.594;2023-01-30T11:37:37;100698.84;;;8.18;74.85
20889;BME280;10604;51.976;7.594;2023-01-30T11:42:57;100702.59;;;8.48;74.52
20889;BME280;10604;51.976;7.594;2023-01-30T11:45:23;100696.56;;;8.45;73.70
20889;BME280;10604;51.976;7.594;2023-01-30T11:47:56;100697.31;;;8.50;74.68
20889;BME280;10604;51.976;7.594;2023-01-30T11:50:27;100703.47;;;8.49;73.45
20889;BME280;10604;51.976;7.594;2023-01-30T11:52:54;100708.44;;;8.61;72.89
20889;BME280;10604;51.976;7.594;2023-01-30T11:55:20;100699.53;;;8.68;72.73
20889;BME280;10604;51.976;7.594;2023-01-30T11:57:49;100695.59;;;8.49;72.20
20889;BME280;10604;51.976;7.594;2023-01-30T12:00:22;100715.63;;;8.53;72.08
20889;BME280;10604;51.976;7.594;2023-01-30T12:02:50;100709.44;;;8.57;71.97
20889;BME280;10604;51.976;7.594;2023-01-30T12:05:30;100707.84;;;8.50;70.46
20889;BME280;10604;51.976;7.594;2023-01-30T12:10:43;100700.63;;;8.59;69.50
20889;BME280;10604;51.976;7.594;2023-01-30T12:16:00;100690.03;;;8.61;68.66
20889;BME280;10604;51.976;7.594;2023-01-30T12:18:38;100696.44;;;8.51;68.17
20889;BME280;10604;51.976;7.594;2023-01-30T12:21:20;100712.81;;;8.62;70.46
20889;BME280;10604;51.976;7.594;2023-01-30T12:23:56;100699.66;;;8.62;70.44
20889;BME280;10604;51.976;7.594;2023-01-30T12:26:27;100713.56;;;8.67;70.08
20889;BME280;10604;51.976;7.594;2023-01-30T12:32:16;100731.81;;;9.12;69.11
20889;BME280;10604;51.976;7.594;2023-01-30T12:34:44;100710.97;;;9.02;67.75
20889;BME280;10604;51.976;7.594;2023-01-30T12:45:30;100730.19;;;8.27;72.53
20889;BME280;10604;51.976;7.594;2023-01-30T12:58:50;100709.81;;;8.39;73.02
20889;BME280;10604;51.976;7.594;2023-01-30T13:09:37;100732.34;;;8.50;70.07
20889;BME280;10604;51.976;7.594;2023-01-30T13:12:15;100730.25;;;8.66;71.36
20889;BME280;10604;51.976;7.594;2023-01-30T13:14:59;100738.88;;;8.73;69.71
20889;BME280;10604;51.976;7.594;2023-01-30T13:17:47;100730.81;;;8.80;69.00
20889;BME280;10604;51.976;7.594;2023-01-30T13:23:42;100733.66;;;8.71;68.46
20889;BME280;10604;51.976;7.594;2023-01-30T13:26:16;100751.16;;;8.72;68.98
20889;BME280;10604;51.976;7.594;2023-01-30T13:28:50;100755.44;;;8.76;68.56
20889;BME280;10604;51.976;7.594;2023-01-30T13:31:20;100764.31;;;8.72;67.59
20889;BME280;10604;51.976;7.594;2023-01-30T13:36:52;100747.88;;;9.36;67.77
20889;BME280;10604;51.976;7.594;2023-01-30T13:39:39;100742.94;;;9.58;67.43
20889;BME280;10604;51.976;7.594;2023-01-30T13:42:13;100771.44;;;9.41;67.57
20889;BME280;10604;51.976;7.594;2023-01-30T13:44:42;100772.94;;;9.16;68.63
20889;BME280;10604;51.976;7.594;2023-01-30T14:00:59;100818.25;;;8.02;78.04
20889;BME280;10604;51.976;7.594;2023-01-30T14:08:17;100850.56;;;7.54;78.32
20889;BME280;10604;51.976;7.594;2023-01-30T14:10:44;100855.81;;;7.54;79.04
20889;BME280;10604;51.976;7.594;2023-01-30T14:13:12;100860.16;;;7.56;78.91
20889;BME280;10604;51.976;7.594;2023-01-30T14:15:50;100862.00;;;7.53;80.00
20889;BME280;10604;51.976;7.594;2023-01-30T14:21:20;100870.19;;;7.31;81.12
20889;BME280;10604;51.976;7.594;2023-01-30T14:24:03;100874.50;;;7.34;81.49
20889;BME280;10604;51.976;7.594;2023-01-30T14:37:43;100892.09;;;7.26;80.54
20889;BME280;10604;51.976;7.594;2023-01-30T14:45:53;100911.75;;;7.59;78.80
20889;BME280;10604;51.976;7.594;2023-01-30T14:48:40;100909.16;;;7.56;78.39
20889;BME280;10604;51.976;7.594;2023-01-30T14:56:15;100927.31;;;7.71;78.49
20889;BME280;10604;51.976;7.594;2023-01-30T14:58:59;100941.97;;;7.84;78.00
20889;BME280;10604;51.976;7.594;2023-01-30T15:01:26;100947.00;;;7.98;77.84
20889;BME280;10604;51.976;7.594;2023-01-30T15:03:51;100952.28;;;7.96;77.46
20889;BME280;10604;51.976;7.594;2023-01-30T15:06:17;100956.81;;;7.88;77.08
20889;BME280;10604;51.976;7.594;2023-01-30T15:08:44;100964.50;;;7.99;78.07
20889;BME280;10604;51.976;7.594;2023-01-30T15:11:27;100968.97;;;7.92;76.07
20889;BME280;10604;51.976;7.594;2023-01-30T15:16:52;100968.66;;;8.10;76.43
20889;BME280;10604;51.976;7.594;2023-01-30T15:19:35;100975.88;;;7.99;76.56
20889;BME280;10604;51.976;7.594;2023-01-30T15:22:25;100985.38;;;8.08;76.14
20889;BME280;10604;51.976;7.594;2023-01-30T15:25:16;100981.16;;;7.96;75.97
20889;BME280;10604;51.976;7.594;2023-01-30T15:30:52;100995.03;;;8.04;76.04
20889;BME280;10604;51.976;7.594;2023-01-30T15:33:22;101000.38;;;8.01;75.93
20889;BME280;10604;51.976;7.594;2023-01-30T15:35:48;100995.13;;;8.00;76.35
20889;BME280;10604;51.976;7.594;2023-01-30T15:38:33;100995.22;;;7.95;76.34
20889;BME280;10604;51.976;7.594;2023-01-30T15:41:02;100996.97;;;7.93;76.38
20889;BME280;10604;51.976;7.594;2023-01-30T15:46:18;101012.44;;;8.11;75.75
20889;BME280;10604;51.976;7.594;2023-01-30T15:51:25;101016.06;;;8.04;75.72